Time;durP1;ratioP1;P1;durP2;ratioP2;P2;SDS_P1;SDS_P2;PMS_P1;PMS_P2;Temp;Humidity;BMP_temperature;BMP_pressure;BME280_temperature;BME280_humidity;BME280_pressure;Samples;Min_cycle;Max_cycle;Signal;HPM_P1;HPM_P2
2023/05/10 00:01:58;;;;;;;46.33;30.73;;;14.80;99.90;;;;;;5012638;28;20034;-84
2023/05/10 00:04:27;;;;;;;43.78;28.92;;;14.80;99.90;;;;;;5011741;28;20032;-84
2023/05/10 00:06:53;;;;;;;45.40;30.80;;;14.80;99.90;;;;;;5012542;28;20405;-84
2023/05/10 00:09:19;;;;;;;46.38;29.02;;;14.80;99.90;;;;;;5012741;28;20029;-84
2023/05/10 00:11:44;;;;;;;43.38;29.45;;;14.80;99.90;;;;;;5011640;28;20030;-84
2023/05/10 00:14:10;;;;;;;48.45;29.65;;;14.70;99.90;;;;;;5012302;28;20196;-83
2023/05/10 00:16:36;;;;;;;39.35;27.27;;;14.70;99.90;;;;;;5011908;28;20390;-84
2023/05/10 00:19:02;;;;;;;47.17;29.20;;;14.60;99.90;;;;;;5011932;28;20018;-84
2023/05/10 00:21:29;;;;;;;43.33;29.40;;;14.70;99.90;;;;;;5012560;28;20033;-84
2023/05/10 00:23:54;;;;;;;41.05;28.27;;;14.60;99.90;;;;;;5011644;28;20096;-84
2023/05/10 00:26:20;;;;;;;43.25;27.67;;;14.50;99.90;;;;;;5012109;28;20485;-83
2023/05/10 00:28:45;;;;;;;45.42;28.30;;;14.50;99.90;;;;;;5012459;28;20022;-83
2023/05/10 00:31:11;;;;;;;48.80;28.30;;;14.50;99.90;;;;;;5015899;28;20018;-84
2023/05/10 00:33:36;;;;;;;45.30;29.00;;;14.50;99.90;;;;;;5016004;28;20037;-82
2023/05/10 00:36:02;;;;;;;42.55;28.17;;;14.50;99.90;;;;;;5016335;28;20038;-83
2023/05/10 00:38:28;;;;;;;45.85;28.77;;;14.50;99.90;;;;;;5015290;28;20113;-84
2023/05/10 00:40:54;;;;;;;50.15;29.17;;;14.40;99.90;;;;;;5015830;28;20504;-84
2023/05/10 00:43:19;;;;;;;47.80;29.55;;;14.40;99.90;;;;;;5015097;28;20054;-83
2023/05/10 00:45:45;;;;;;;54.03;31.27;;;14.50;99.90;;;;;;5014109;28;20030;-83
2023/05/10 00:48:10;;;;;;;49.83;30.60;;;14.50;99.90;;;;;;5014995;28;20022;-84
2023/05/10 00:50:36;;;;;;;56.30;31.35;;;14.50;99.90;;;;;;5014546;28;20033;-83
2023/05/10 00:53:02;;;;;;;45.95;29.92;;;14.50;99.90;;;;;;5014273;28;20466;-84
2023/05/10 00:55:28;;;;;;;49.47;31.80;;;14.50;99.90;;;;;;5014686;28;20378;-83
2023/05/10 00:57:54;;;;;;;52.17;31.27;;;14.50;99.90;;;;;;5014233;28;20040;-84
2023/05/10 01:00:20;;;;;;;50.50;29.35;;;14.60;99.90;;;;;;5013956;28;20028;-83
2023/05/10 01:02:46;;;;;;;49.42;30.42;;;14.70;99.90;;;;;;5014084;28;20030;-83
2023/05/10 01:05:12;;;;;;;46.65;31.52;;;14.70;99.90;;;;;;5014690;28;20036;-84
2023/05/10 01:07:38;;;;;;;45.08;30.30;;;14.60;99.90;;;;;;5013480;28;20109;-83
2023/05/10 01:10:04;;;;;;;47.35;30.05;;;14.70;99.90;;;;;;5014654;28;20028;-83
2023/05/10 01:12:30;;;;;;;43.58;28.30;;;14.60;99.90;;;;;;5014346;28;20072;-83
2023/05/10 01:14:56;;;;;;;44.67;28.13;;;14.60;99.90;;;;;;5013380;28;20045;-84
2023/05/10 01:17:22;;;;;;;47.05;30.05;;;14.60;99.90;;;;;;5014204;28;20100;-83
2023/05/10 01:19:48;;;;;;;39.25;27.90;;;14.60;99.90;;;;;;5014368;28;20026;-84
2023/05/10 01:22:42;;;;;;;41.90;27.25;;;14.70;99.90;;;;;;5013705;28;20034;-83
2023/05/10 01:25:19;;;;;;;42.03;28.27;;;14.60;99.90;;;;;;5014512;28;20026;-84
2023/05/10 01:27:59;;;;;;;47.17;29.42;;;14.60;99.90;;;;;;5013101;28;20474;-84
2023/05/10 01:31:02;;;;;;;40.00;27.20;;;14.50;99.90;;;;;;5014489;28;20044;-83
2023/05/10 01:33:42;;;;;;;45.47;28.40;;;14.50;99.90;;;;;;5014313;28;20025;-83
2023/05/10 01:36:25;;;;;;;44.78;27.63;;;14.50;99.90;;;;;;5013445;28;20061;-84
2023/05/10 01:39:04;;;;;;;47.30;29.08;;;14.60;99.90;;;;;;5013645;28;20729;-84
2023/05/10 01:44:25;;;;;;;44.15;27.85;;;14.50;99.90;;;;;;5046477;27;20899;-84
2023/05/10 01:47:01;;;;;;;41.92;26.05;;;14.40;99.90;;;;;;5045965;28;20537;-85
2023/05/10 01:49:30;;;;;;;39.63;26.15;;;14.40;99.90;;;;;;5045918;28;20025;-85
2023/05/10 01:52:10;;;;;;;43.08;26.45;;;14.40;99.90;;;;;;5046144;28;20038;-85
2023/05/10 01:54:42;;;;;;;47.33;27.27;;;14.50;99.90;;;;;;5046123;28;20365;-84
2023/05/10 01:57:12;;;;;;;41.15;26.30;;;14.50;99.90;;;;;;5045624;28;20029;-84
2023/05/10 01:59:40;;;;;;;44.40;25.75;;;14.50;99.90;;;;;;5045808;28;20021;-84
2023/05/10 02:02:07;;;;;;;43.65;28.23;;;14.60;99.90;;;;;;5045942;28;20037;-84
2023/05/10 02:04:37;;;;;;;37.05;25.25;;;14.60;99.90;;;;;;5044986;28;20029;-84
2023/05/10 02:07:03;;;;;;;46.33;27.33;;;14.60;99.90;;;;;;5046527;28;20037;-84
2023/05/10 02:09:31;;;;;;;48.38;26.35;;;14.60;99.90;;;;;;5045106;28;20147;-84
2023/05/10 02:11:59;;;;;;;41.38;26.52;;;14.80;99.90;;;;;;5045718;28;20057;-84
2023/05/10 02:14:26;;;;;;;41.63;25.63;;;14.70;99.90;;;;;;5045758;28;20479;-84
2023/05/10 02:16:53;;;;;;;40.65;26.58;;;14.70;99.90;;;;;;5044990;28;20027;-84
2023/05/10 02:19:20;;;;;;;42.00;25.65;;;15.00;99.90;;;;;;5045709;28;20472;-83
2023/05/10 02:21:46;;;;;;;43.30;26.05;;;14.60;99.90;;;;;;5045757;28;20037;-84
2023/05/10 02:24:15;;;;;;;43.25;26.60;;;14.60;99.90;;;;;;5045208;28;20033;-84
2023/05/10 02:26:42;;;;;;;41.08;25.17;;;14.60;99.90;;;;;;5045791;28;20060;-84
2023/05/10 02:29:09;;;;;;;34.42;24.30;;;14.60;99.90;;;;;;5045457;28;20533;-84
2023/05/10 02:31:35;;;;;;;48.58;27.13;;;14.50;99.90;;;;;;5044523;28;20104;-84
2023/05/10 02:34:02;;;;;;;45.67;28.17;;;14.50;99.90;;;;;;5045454;28;20104;-84
2023/05/10 02:36:29;;;;;;;47.58;26.92;;;14.60;99.90;;;;;;5045427;28;20465;-84
2023/05/10 02:38:55;;;;;;;48.17;27.83;;;14.60;99.90;;;;;;5044660;28;20026;-84
2023/05/10 02:41:24;;;;;;;47.70;28.42;;;14.60;99.90;;;;;;5045622;28;20025;-84
2023/05/10 02:43:52;;;;;;;51.63;30.88;;;14.60;99.90;;;;;;5044873;28;20049;-84
2023/05/10 02:46:18;;;;;;;44.38;29.85;;;14.60;99.90;;;;;;5044891;28;20092;-84
2023/05/10 02:48:43;;;;;;;56.17;30.17;;;14.60;99.90;;;;;;5045240;28;20032;-84
2023/05/10 02:51:12;;;;;;;43.25;28.73;;;14.50;99.90;;;;;;5045167;28;20017;-84
2023/05/10 02:53:40;;;;;;;57.45;32.00;;;14.60;99.90;;;;;;5042166;28;20506;-84
2023/05/10 02:56:27;;;;;;;54.28;30.40;;;14.60;99.90;;;;;;5032001;28;20100;-84
2023/05/10 02:58:53;;;;;;;54.50;30.75;;;14.60;99.90;;;;;;5030960;28;20032;-84
2023/05/10 03:01:18;;;;;;;57.20;32.22;;;14.60;99.90;;;;;;5031697;28;20026;-84
2023/05/10 03:03:44;;;;;;;50.80;30.48;;;14.60;99.90;;;;;;5031669;28;20033;-84
2023/05/10 03:06:10;;;;;;;53.05;30.33;;;14.90;99.90;;;;;;5031418;28;20112;-84
2023/05/10 03:08:35;;;;;;;54.20;30.25;;;14.60;99.90;;;;;;5031487;28;20491;-84
2023/05/10 03:11:38;;;;;;;49.92;29.55;;;14.70;99.90;;;;;;5031815;28;20024;-84
2023/05/10 03:14:20;;;;;;;54.55;30.38;;;14.70;99.90;;;;;;5030933;28;20400;-84
2023/05/10 03:16:52;;;;;;;51.90;29.17;;;14.70;99.90;;;;;;5031549;28;20022;-84
2023/05/10 03:19:26;;;;;;;52.33;29.27;;;14.70;99.90;;;;;;5031537;28;20433;-84
2023/05/10 03:21:55;;;;;;;49.92;28.23;;;14.70;99.90;;;;;;5030908;28;20036;-84
2023/05/10 03:24:23;;;;;;;46.53;29.52;;;14.70;99.90;;;;;;5031519;28;20483;-84
2023/05/10 03:26:51;;;;;;;47.58;27.77;;;14.70;99.90;;;;;;5030769;28;20150;-84
2023/05/10 03:29:17;;;;;;;50.03;29.98;;;14.70;99.90;;;;;;5031662;28;20040;-84
2023/05/10 03:31:43;;;;;;;49.55;29.75;;;14.70;99.90;;;;;;5031235;28;20377;-84
2023/05/10 03:34:08;;;;;;;51.53;29.30;;;14.70;99.90;;;;;;5030858;28;20032;-84
2023/05/10 03:36:34;;;;;;;50.78;29.58;;;14.70;99.90;;;;;;5031022;28;20030;-84
2023/05/10 03:38:59;;;;;;;48.13;29.88;;;14.90;99.90;;;;;;5031239;28;20026;-84
2023/05/10 03:41:25;;;;;;;50.30;29.42;;;14.70;99.90;;;;;;5031018;28;20033;-84
2023/05/10 03:43:51;;;;;;;47.70;29.50;;;14.60;99.90;;;;;;5030600;28;20060;-84
2023/05/10 03:46:16;;;;;;;51.50;30.80;;;14.60;99.90;;;;;;5031048;28;20026;-84
2023/05/10 03:48:42;;;;;;;48.58;30.50;;;14.60;99.90;;;;;;5030050;28;20029;-84
2023/05/10 03:51:08;;;;;;;54.92;31.35;;;14.60;99.90;;;;;;5030975;28;20113;-84
2023/05/10 03:53:33;;;;;;;49.33;30.27;;;14.60;99.90;;;;;;5030671;28;20057;-85
2023/05/10 03:55:59;;;;;;;52.00;29.60;;;14.50;99.90;;;;;;5030553;28;20469;-85
2023/05/10 03:58:24;;;;;;;51.13;29.73;;;14.60;99.90;;;;;;5031206;28;20457;-83
2023/05/10 04:00:51;;;;;;;49.95;28.17;;;14.50;99.90;;;;;;5030642;28;20101;-84
2023/05/10 04:03:17;;;;;;;41.78;27.20;;;14.50;99.90;;;;;;5030253;28;20041;-84
2023/05/10 04:05:43;;;;;;;39.88;24.85;;;14.60;99.90;;;;;;5029526;28;20089;-84
2023/05/10 04:08:09;;;;;;;36.20;24.27;;;14.50;99.90;;;;;;5030636;28;20029;-83
2023/05/10 04:10:34;;;;;;;41.20;23.80;;;14.60;99.90;;;;;;5029766;28;20048;-84
2023/05/10 04:13:00;;;;;;;41.95;25.08;;;14.50;99.90;;;;;;5030746;28;20033;-84
2023/05/10 04:15:25;;;;;;;38.63;25.25;;;14.50;99.90;;;;;;5031007;28;20085;-84
2023/05/10 04:17:51;;;;;;;40.88;26.77;;;14.50;99.90;;;;;;5029994;28;20033;-84
2023/05/10 04:20:17;;;;;;;41.55;26.02;;;14.50;99.90;;;;;;5030545;28;20025;-84
2023/05/10 04:22:42;;;;;;;44.55;27.10;;;14.50;99.90;;;;;;5030017;28;20033;-85
2023/05/10 04:25:08;;;;;;;43.70;27.90;;;14.50;99.90;;;;;;5030169;28;20025;-84
2023/05/10 04:27:34;;;;;;;45.38;30.52;;;14.50;99.90;;;;;;5030655;28;20520;-84
2023/05/10 04:30:00;;;;;;;44.80;31.63;;;14.50;99.90;;;;;;5030600;28;20062;-84
2023/05/10 04:32:25;;;;;;;55.58;33.60;;;14.50;99.90;;;;;;5029686;28;20116;-84
2023/05/10 04:34:51;;;;;;;51.15;32.05;;;14.50;99.90;;;;;;5029991;28;20460;-84
2023/05/10 04:37:16;;;;;;;46.80;31.23;;;14.50;99.90;;;;;;5029574;28;20037;-84
2023/05/10 04:39:42;;;;;;;41.80;27.52;;;14.50;99.90;;;;;;5029911;28;20080;-84
2023/05/10 04:42:08;;;;;;;50.15;29.77;;;14.50;99.90;;;;;;5030706;28;20049;-84
2023/05/10 04:44:33;;;;;;;47.42;29.83;;;14.50;99.90;;;;;;5029663;28;20041;-84
2023/05/10 04:46:59;;;;;;;51.90;33.35;;;14.50;99.90;;;;;;5030220;28;20354;-84
2023/05/10 04:49:25;;;;;;;56.70;33.33;;;14.50;99.90;;;;;;5030362;28;20086;-83
2023/05/10 04:51:50;;;;;;;56.67;32.20;;;14.50;99.90;;;;;;5028944;28;20068;-84
2023/05/10 04:54:16;;;;;;;53.97;32.22;;;14.50;99.90;;;;;;5030239;28;20484;-84
2023/05/10 04:56:41;;;;;;;41.22;29.52;;;14.30;99.90;;;;;;5029994;28;20026;-84
2023/05/10 04:59:07;;;;;;;47.67;30.98;;;14.40;99.90;;;;;;5029371;28;20066;-84
2023/05/10 05:01:33;;;;;;;53.08;35.25;;;14.50;99.90;;;;;;5029623;28;20063;-84
2023/05/10 05:03:59;;;;;;;52.50;35.22;;;14.40;99.90;;;;;;5029990;28;20034;-84
2023/05/10 05:06:24;;;;;;;48.63;35.72;;;14.70;99.90;;;;;;5029123;28;20026;-84
2023/05/10 05:08:51;;;;;;;51.80;38.10;;;14.40;99.90;;;;;;5030016;28;20468;-84
2023/05/10 05:11:17;;;;;;;52.95;38.03;;;14.40;99.90;;;;;;5030192;28;20070;-84
2023/05/10 05:13:43;;;;;;;56.53;37.08;;;14.40;99.90;;;;;;5028855;28;20104;-84
2023/05/10 05:16:08;;;;;;;57.22;36.42;;;14.40;99.90;;;;;;5029683;28;20532;-84
2023/05/10 05:18:34;;;;;;;50.95;36.03;;;14.40;99.90;;;;;;5028939;28;20139;-84
2023/05/10 05:21:00;;;;;;;53.83;36.00;;;14.40;99.90;;;;;;5028592;28;20051;-84
2023/05/10 05:23:26;;;;;;;56.97;36.42;;;14.40;99.90;;;;;;5029328;28;20496;-83
2023/05/10 05:25:52;;;;;;;49.88;36.28;;;14.40;99.90;;;;;;5029614;28;20044;-84
2023/05/10 05:28:19;;;;;;;55.47;37.53;;;14.40;99.90;;;;;;5028733;28;20025;-84
2023/05/10 05:30:44;;;;;;;51.40;34.60;;;14.40;99.90;;;;;;5029672;28;20418;-83
2023/05/10 05:33:10;;;;;;;42.50;31.73;;;14.40;99.90;;;;;;5029474;28;20051;-84
2023/05/10 05:35:36;;;;;;;51.83;33.50;;;14.40;99.90;;;;;;5028880;28;20048;-84
2023/05/10 05:38:01;;;;;;;43.55;33.42;;;14.30;99.90;;;;;;5029858;28;20064;-82
2023/05/10 05:40:27;;;;;;;56.47;38.42;;;14.30;99.90;;;;;;5028851;28;20028;-83
2023/05/10 05:42:52;;;;;;;54.35;36.20;;;14.60;99.90;;;;;;5028922;28;20045;-83
2023/05/10 05:45:18;;;;;;;52.75;36.58;;;14.40;99.90;;;;;;5029562;28;20028;-83
2023/05/10 05:47:43;;;;;;;46.78;33.88;;;14.40;99.90;;;;;;5028322;28;20446;-83
2023/05/10 05:50:09;;;;;;;47.65;33.35;;;14.30;99.90;;;;;;5029406;28;20413;-83
2023/05/10 05:52:35;;;;;;;42.72;29.65;;;14.30;99.90;;;;;;5029177;28;20461;-83
2023/05/10 05:55:01;;;;;;;43.10;29.60;;;14.30;99.90;;;;;;5028479;28;20041;-83
2023/05/10 05:57:27;;;;;;;37.92;26.80;;;14.20;99.90;;;;;;5029185;28;20026;-83
2023/05/10 05:59:52;;;;;;;40.30;26.70;;;14.20;99.90;;;;;;5028868;28;20112;-83
2023/05/10 06:02:18;;;;;;;42.55;27.27;;;14.20;99.90;;;;;;5028157;28;20505;-83
2023/05/10 06:04:43;;;;;;;57.60;31.90;;;14.30;99.90;;;;;;5028529;28;20029;-83
2023/05/10 06:07:09;;;;;;;56.75;30.80;;;14.30;99.90;;;;;;5029188;28;20484;-83
2023/05/10 06:09:35;;;;;;;62.63;34.22;;;14.30;99.90;;;;;;5028238;28;20029;-82
2023/05/10 06:12:01;;;;;;;61.50;32.25;;;14.30;99.90;;;;;;5029057;28;20122;-83
2023/05/10 06:14:27;;;;;;;47.33;28.98;;;14.30;99.90;;;;;;5028839;28;20487;-83
2023/05/10 06:16:52;;;;;;;47.20;28.52;;;14.20;99.90;;;;;;5028037;28;20030;-83
2023/05/10 06:19:18;;;;;;;48.15;30.48;;;14.40;99.90;;;;;;5028778;28;20044;-85
2023/05/10 06:21:43;;;;;;;43.95;27.92;;;14.20;99.90;;;;;;5028780;28;20025;-85
2023/05/10 06:24:09;;;;;;;46.63;28.45;;;14.20;99.90;;;;;;5028238;28;20037;-84
2023/05/10 06:26:34;;;;;;;42.72;25.73;;;14.20;99.90;;;;;;5028373;28;20026;-83
2023/05/10 06:29:01;;;;;;;39.13;26.40;;;14.20;99.90;;;;;;5029445;28;20026;-84
2023/05/10 06:31:26;;;;;;;29.65;22.65;;;14.30;99.90;;;;;;5031617;28;20049;-85
2023/05/10 06:33:52;;;;;;;29.42;20.30;;;14.30;99.90;;;;;;5031981;28;20064;-84
2023/05/10 06:36:17;;;;;;;31.88;19.88;;;14.20;99.90;;;;;;5032116;28;20469;-85
2023/05/10 06:38:43;;;;;;;22.52;17.27;;;14.30;99.90;;;;;;5031414;28;20034;-85
2023/05/10 06:41:08;;;;;;;23.33;16.30;;;14.30;99.90;;;;;;5032211;28;20021;-84
2023/05/10 06:43:34;;;;;;;21.13;15.65;;;14.30;99.90;;;;;;5031614;28;20072;-85
2023/05/10 06:46:00;;;;;;;19.10;13.60;;;14.40;99.90;;;;;;5031339;28;20021;-84
2023/05/10 06:48:25;;;;;;;15.18;12.25;;;14.40;99.90;;;;;;5032174;28;20033;-85
2023/05/10 06:50:51;;;;;;;16.13;11.70;;;14.40;99.90;;;;;;5031098;28;20603;-84
2023/05/10 06:53:16;;;;;;;11.50;9.93;;;14.40;99.90;;;;;;5031961;28;20077;-85
2023/05/10 06:55:42;;;;;;;12.20;10.18;;;14.30;99.90;;;;;;5031991;28;20051;-85
2023/05/10 06:58:07;;;;;;;9.73;8.68;;;14.40;99.90;;;;;;5034155;28;20022;-84
2023/05/10 07:00:33;;;;;;;10.35;9.35;;;14.40;99.90;;;;;;5033156;28;20057;-84
2023/05/10 07:02:58;;;;;;;13.85;9.52;;;14.50;99.90;;;;;;5031552;28;20065;-84
2023/05/10 07:05:24;;;;;;;10.55;9.55;;;14.50;99.90;;;;;;5031161;28;20037;-84
2023/05/10 07:07:50;;;;;;;10.63;9.52;;;14.50;99.90;;;;;;5031728;28;20025;-85
2023/05/10 07:10:15;;;;;;;9.65;8.50;;;14.50;99.90;;;;;;5031714;28;20245;-84
2023/05/10 07:12:41;;;;;;;7.65;6.85;;;14.40;99.90;;;;;;5030931;28;20408;-84
2023/05/10 07:15:08;;;;;;;9.55;7.55;;;14.50;99.90;;;;;;5031722;28;20354;-84
2023/05/10 07:17:34;;;;;;;7.22;6.22;;;14.40;99.90;;;;;;5031271;28;20037;-84
2023/05/10 07:20:01;;;;;;;6.05;5.55;;;14.40;99.90;;;;;;5030903;28;20017;-84
2023/05/10 07:22:26;;;;;;;7.53;5.90;;;14.40;99.90;;;;;;5030095;28;20102;-84
2023/05/10 07:24:52;;;;;;;6.50;5.88;;;14.40;99.90;;;;;;5030974;28;20037;-84
2023/05/10 07:27:17;;;;;;;6.22;5.28;;;14.40;99.90;;;;;;5030633;28;20022;-84
2023/05/10 07:29:43;;;;;;;5.45;4.95;;;14.40;99.90;;;;;;5031267;28;20486;-84
2023/05/10 07:32:08;;;;;;;5.80;5.07;;;14.50;99.90;;;;;;5031254;28;20361;-84
2023/05/10 07:34:34;;;;;;;5.65;5.15;;;14.50;99.90;;;;;;5030563;28;20388;-84
2023/05/10 07:37:00;;;;;;;5.70;5.10;;;14.50;99.90;;;;;;5031615;28;20450;-83
2023/05/10 07:39:28;;;;;;;5.15;4.65;;;14.40;99.90;;;;;;5031447;28;20045;-84
2023/05/10 07:41:54;;;;;;;4.28;3.97;;;14.50;99.90;;;;;;5030101;28;20026;-84
2023/05/10 07:44:20;;;;;;;5.30;4.90;;;14.60;99.90;;;;;;5031215;28;20033;-84
2023/05/10 07:46:46;;;;;;;6.90;4.22;;;14.60;99.90;;;;;;5030621;28;20025;-84
2023/05/10 07:49:11;;;;;;;5.25;4.75;;;14.60;99.90;;;;;;5030714;28;20037;-84
2023/05/10 07:51:37;;;;;;;5.82;4.45;;;14.60;99.90;;;;;;5030968;28;20025;-84
2023/05/10 07:54:03;;;;;;;6.15;5.55;;;14.60;99.90;;;;;;5030676;28;20030;-84
2023/05/10 07:56:32;;;;;;;5.78;5.22;;;14.50;99.90;;;;;;5030994;28;20036;-85
2023/05/10 07:58:59;;;;;;;7.00;6.40;;;14.50;99.90;;;;;;5030934;28;20030;-84
2023/05/10 08:01:25;;;;;;;6.07;5.57;;;14.60;99.90;;;;;;5030127;28;20045;-85
2023/05/10 08:03:51;;;;;;;7.55;5.88;;;14.60;99.90;;;;;;5030310;28;20086;-84
2023/05/10 08:06:18;;;;;;;7.40;6.70;;;14.60;99.90;;;;;;5031005;28;20021;-84
2023/05/10 08:08:45;;;;;;;7.90;7.15;;;14.50;99.90;;;;;;5030042;28;20021;-84
2023/05/10 08:11:11;;;;;;;8.38;7.22;;;14.60;99.90;;;;;;5030988;28;20032;-84
2023/05/10 08:13:36;;;;;;;8.57;7.72;;;14.60;99.90;;;;;;5030279;28;20033;-84
2023/05/10 08:16:02;;;;;;;8.77;7.88;;;14.60;99.90;;;;;;5029943;28;20053;-84
2023/05/10 08:18:28;;;;;;;8.05;7.28;;;15.00;99.90;;;;;;5030794;28;20396;-85
2023/05/10 08:20:53;;;;;;;8.10;7.30;;;14.70;99.90;;;;;;5030826;28;20382;-84
2023/05/10 08:23:19;;;;;;;7.60;6.90;;;14.60;99.90;;;;;;5029923;28;20459;-84
2023/05/10 08:25:44;;;;;;;8.52;7.57;;;14.60;99.90;;;;;;5030404;28;20029;-84
2023/05/10 08:28:10;;;;;;;8.77;7.80;;;14.70;99.90;;;;;;5030579;28;20070;-84
2023/05/10 08:30:35;;;;;;;8.18;7.38;;;14.60;99.90;;;;;;5029533;28;20034;-84
2023/05/10 08:33:01;;;;;;;8.32;7.60;;;14.70;99.90;;;;;;5030270;28;20045;-84
2023/05/10 08:35:26;;;;;;;9.02;7.95;;;14.60;99.90;;;;;;5030383;28;20022;-84
2023/05/10 08:37:52;;;;;;;9.98;8.32;;;14.70;99.90;;;;;;5029178;28;20026;-85
2023/05/10 08:40:20;;;;;;;12.93;9.00;;;14.70;99.90;;;;;;5030473;28;20108;-84
2023/05/10 08:42:53;;;;;;;10.85;7.38;;;14.70;99.90;;;;;;5029579;28;20412;-84
2023/05/10 08:45:21;;;;;;;7.85;6.30;;;14.70;99.90;;;;;;5029300;28;20025;-84
2023/05/10 08:47:47;;;;;;;16.17;7.30;;;14.70;99.90;;;;;;5029730;28;20396;-84
2023/05/10 08:50:14;;;;;;;9.57;6.95;;;14.70;99.90;;;;;;5030354;28;20025;-84
2023/05/10 08:52:41;;;;;;;8.27;7.47;;;14.70;99.90;;;;;;5028794;28;20026;-84
2023/05/10 08:55:07;;;;;;;11.48;7.13;;;14.70;99.90;;;;;;5030140;28;20082;-84
2023/05/10 08:57:32;;;;;;;14.35;8.35;;;14.70;99.90;;;;;;5029074;28;20021;-84
2023/05/10 09:00:00;;;;;;;9.55;7.85;;;14.70;99.90;;;;;;5030206;28;20025;-84
2023/05/10 09:02:26;;;;;;;11.25;8.30;;;14.70;99.90;;;;;;5030007;28;20105;-84
2023/05/10 09:04:52;;;;;;;9.88;8.05;;;14.70;99.90;;;;;;5029109;28;20026;-84
2023/05/10 09:07:19;;;;;;;12.38;9.50;;;14.70;99.90;;;;;;5029809;28;20098;-84
2023/05/10 09:09:46;;;;;;;16.83;11.23;;;14.70;99.90;;;;;;5029691;28;20033;-85
2023/05/10 09:12:13;;;;;;;19.58;12.73;;;14.70;99.90;;;;;;5029033;28;20472;-84
2023/05/10 09:14:39;;;;;;;24.10;16.13;;;14.70;99.90;;;;;;5029358;28;20033;-84
2023/05/10 09:17:05;;;;;;;21.70;16.52;;;14.70;99.90;;;;;;5029960;28;20022;-85
2023/05/10 09:19:30;;;;;;;19.30;15.25;;;14.80;99.90;;;;;;5029386;28;20025;-84
2023/05/10 09:21:56;;;;;;;22.33;16.83;;;14.80;99.90;;;;;;5029473;28;20021;-84
2023/05/10 09:24:26;;;;;;;24.27;16.45;;;14.80;99.90;;;;;;5029568;28;20476;-85
2023/05/10 09:26:51;;;;;;;24.70;17.27;;;14.80;99.90;;;;;;5028642;28;20037;-84
2023/05/10 09:29:17;;;;;;;25.05;16.90;;;14.80;99.90;;;;;;5029723;28;20029;-85
2023/05/10 09:31:48;;;;;;;19.80;13.05;;;15.00;99.90;;;;;;5029453;28;20022;-84
2023/05/10 09:34:20;;;;;;;;;;;14.90;99.90;;;;;;5029517;28;20034;-85
2023/05/10 09:36:53;;;;;;;18.67;12.45;;;14.90;99.90;;;;;;5029255;28;19909;-85
2023/05/10 09:39:19;;;;;;;18.60;14.85;;;14.90;99.90;;;;;;5029607;28;20022;-84
2023/05/10 09:41:45;;;;;;;16.38;14.18;;;14.90;99.90;;;;;;5028856;28;20026;-85
2023/05/10 09:44:11;;;;;;;19.00;13.35;;;14.90;99.90;;;;;;5033870;28;20045;-84
2023/05/10 09:46:37;;;;;;;20.05;14.05;;;14.90;99.90;;;;;;5028644;28;20025;-84
2023/05/10 09:49:02;;;;;;;14.38;12.45;;;15.00;99.90;;;;;;5029360;28;20082;-85
2023/05/10 09:51:28;;;;;;;13.32;11.65;;;14.90;99.90;;;;;;5029164;28;20544;-84
2023/05/10 09:54:13;;;;;;;13.95;11.93;;;15.00;99.90;;;;;;5028230;28;20083;-85
2023/05/10 09:56:40;;;;;;;12.55;11.32;;;15.00;99.90;;;;;;5029081;28;20033;-84
2023/05/10 09:59:10;;;;;;;12.75;11.43;;;15.00;99.90;;;;;;5029180;28;20490;-84
2023/05/10 10:01:36;;;;;;;15.68;10.00;;;15.00;99.90;;;;;;5028497;28;20026;-84
2023/05/10 10:04:06;;;;;;;13.73;10.13;;;15.10;99.90;;;;;;5029501;28;20041;-84
2023/05/10 10:06:38;;;;;;;8.63;7.90;;;15.10;99.90;;;;;;5032404;28;20028;-84
2023/05/10 10:09:08;;;;;;;10.68;9.65;;;15.10;99.90;;;;;;5031775;28;20264;-84
2023/05/10 10:11:36;;;;;;;11.73;10.20;;;15.10;99.90;;;;;;5032477;28;20013;-84
2023/05/10 10:14:01;;;;;;;12.02;10.93;;;15.10;99.90;;;;;;5032623;28;20025;-85
2023/05/10 10:16:29;;;;;;;15.82;11.60;;;15.20;99.90;;;;;;5031806;28;20476;-84
2023/05/10 10:18:55;;;;;;;10.73;9.85;;;15.10;99.90;;;;;;5032401;28;20026;-85
2023/05/10 10:21:22;;;;;;;9.75;8.85;;;15.10;99.90;;;;;;5032259;28;20377;-85
2023/05/10 10:23:47;;;;;;;10.57;9.73;;;15.10;99.90;;;;;;5031388;28;20041;-85
2023/05/10 10:26:15;;;;;;;8.98;8.10;;;15.00;99.90;;;;;;5032394;28;20472;-85
2023/05/10 10:29:05;;;;;;;8.68;7.97;;;15.10;99.90;;;;;;5031952;28;20507;-84
2023/05/10 10:31:45;;;;;;;9.30;8.30;;;15.00;99.90;;;;;;5032455;28;20044;-84
2023/05/10 10:34:21;;;;;;;7.93;7.22;;;14.90;99.90;;;;;;5032447;28;20025;-84
2023/05/10 10:36:47;;;;;;;8.20;7.45;;;15.00;99.90;;;;;;5031514;28;20112;-85
2023/05/10 10:39:14;;;;;;;7.38;6.78;;;14.90;99.90;;;;;;5032187;28;20156;-84
2023/05/10 10:41:49;;;;;;;7.63;7.05;;;14.90;99.90;;;;;;5032101;28;20022;-84
2023/05/10 10:44:29;;;;;;;8.35;7.60;;;14.90;99.90;;;;;;5031698;28;20068;-84
2023/05/10 10:47:02;;;;;;;8.50;7.80;;;14.80;99.90;;;;;;5031987;28;20032;-85
2023/05/10 10:49:28;;;;;;;10.45;9.43;;;14.80;99.90;;;;;;5032009;28;20034;-85
2023/05/10 10:52:12;;;;;;;11.80;10.73;;;14.80;99.90;;;;;;5031227;28;20034;-84
2023/05/10 10:54:38;;;;;;;11.20;10.40;;;14.90;99.90;;;;;;5031961;28;20030;-85
2023/05/10 10:57:14;;;;;;;13.23;12.13;;;14.80;99.90;;;;;;5031138;28;20018;-85
2023/05/10 10:59:46;;;;;;;13.88;11.38;;;14.90;99.90;;;;;;5031781;28;20524;-84
2023/05/10 11:02:52;;;;;;;16.02;11.77;;;14.80;99.90;;;;;;5031880;28;20468;-85
2023/05/10 11:05:28;;;;;;;12.77;11.57;;;14.80;99.90;;;;;;5030940;28;20030;-85
2023/05/10 11:07:55;;;;;;;11.15;10.05;;;14.80;99.90;;;;;;5031366;28;20032;-84
2023/05/10 11:10:22;;;;;;;12.07;10.98;;;14.80;99.90;;;;;;5031914;28;20033;-84
2023/05/10 11:12:52;;;;;;;14.43;11.23;;;14.80;99.90;;;;;;5030774;28;20495;-85
2023/05/10 11:15:19;;;;;;;12.75;11.65;;;14.80;99.90;;;;;;5031130;28;20037;-84
2023/05/10 11:17:50;;;;;;;11.05;10.25;;;14.80;99.90;;;;;;5031205;28;20099;-84
2023/05/10 11:20:22;;;;;;;12.30;11.25;;;14.80;99.90;;;;;;5031115;28;20034;-84
2023/05/10 11:22:54;;;;;;;13.32;11.05;;;14.90;99.90;;;;;;5031236;28;20041;-84
2023/05/10 11:25:25;;;;;;;12.02;10.88;;;14.90;99.90;;;;;;5030943;28;20032;-84
2023/05/10 11:27:51;;;;;;;11.45;10.55;;;14.90;99.90;;;;;;5031203;28;20393;-84
2023/05/10 11:30:17;;;;;;;12.02;10.90;;;15.00;99.90;;;;;;5031729;28;20155;-84
2023/05/10 11:32:43;;;;;;;11.10;10.15;;;15.00;99.90;;;;;;5030663;28;20037;-84
2023/05/10 11:35:11;;;;;;;10.70;9.82;;;15.00;99.90;;;;;;5031661;28;20069;-84
2023/05/10 11:37:41;;;;;;;10.48;9.25;;;15.00;99.90;;;;;;5031172;28;20102;-85
2023/05/10 11:40:09;;;;;;;11.30;10.30;;;15.00;99.90;;;;;;5031103;28;20175;-84
2023/05/10 11:42:37;;;;;;;10.93;9.77;;;15.00;99.90;;;;;;5030592;28;20485;-84
2023/05/10 11:45:02;;;;;;;12.02;10.80;;;14.90;99.90;;;;;;5031236;28;20033;-84
2023/05/10 11:47:28;;;;;;;11.23;10.18;;;15.00;99.90;;;;;;5030291;28;20027;-85
2023/05/10 11:49:53;;;;;;;12.05;10.85;;;15.00;99.90;;;;;;5030942;28;20086;-84
2023/05/10 11:52:19;;;;;;;12.48;11.18;;;15.00;99.90;;;;;;5030996;28;20078;-84
2023/05/10 11:54:52;;;;;;;14.07;10.80;;;15.00;99.90;;;;;;5030042;28;20034;-84
2023/05/10 11:57:21;;;;;;;12.63;11.32;;;15.00;99.90;;;;;;5031013;28;20050;-84
2023/05/10 11:59:47;;;;;;;13.90;11.35;;;15.10;99.90;;;;;;5030718;28;20025;-84
2023/05/10 12:02:15;;;;;;;12.85;11.32;;;15.00;99.90;;;;;;5030095;28;20081;-84
2023/05/10 12:04:41;;;;;;;16.60;12.70;;;15.00;99.90;;;;;;5030820;28;20074;-84
2023/05/10 12:07:07;;;;;;;18.00;13.63;;;14.90;99.90;;;;;;5030688;28;20022;-84
2023/05/10 12:09:32;;;;;;;15.60;14.10;;;14.90;99.90;;;;;;5029498;28;20031;-84
2023/05/10 12:11:58;;;;;;;16.65;14.07;;;14.90;99.90;;;;;;5030407;28;20022;-84
2023/05/10 12:14:24;;;;;;;15.38;13.90;;;14.90;99.90;;;;;;5030070;28;20473;-84
2023/05/10 12:16:50;;;;;;;14.57;13.20;;;14.90;99.90;;;;;;5030636;28;20473;-84
2023/05/10 12:19:20;;;;;;;11.77;9.85;;;15.00;99.90;;;;;;5030836;28;20267;-85
2023/05/10 12:21:45;;;;;;;10.00;7.45;;;14.90;99.90;;;;;;5029606;28;20021;-85
2023/05/10 12:24:12;;;;;;;12.05;7.38;;;14.90;99.90;;;;;;5030942;28;20047;-84
2023/05/10 12:26:37;;;;;;;8.32;7.45;;;14.90;99.90;;;;;;5029470;28;20025;-83
2023/05/10 12:29:20;;;;;;;8.75;7.80;;;14.90;99.90;;;;;;5029961;28;20029;-83
2023/05/10 12:31:59;;;;;;;8.93;8.05;;;15.00;99.90;;;;;;5030255;28;20029;-83
2023/05/10 12:34:26;;;;;;;9.40;7.50;;;14.90;99.90;;;;;;5030337;28;20025;-84
2023/05/10 12:36:53;;;;;;;8.27;7.53;;;14.90;99.90;;;;;;5029184;28;20029;-84